createdAt,value
2018-06-29T00:05:13.592Z,97.02
2018-06-29T00:15:13.025Z,99.48
2018-06-29T00:25:10.752Z,96.92
2018-06-29T00:35:09.475Z,97.92
2018-06-29T00:45:16.178Z,93.48
2018-06-29T00:55:11.887Z,93.68
2018-06-29T01:05:08.850Z,95.03
2018-06-29T01:15:03.759Z,94.77
2018-06-29T01:24:59.337Z,96.47
2018-06-29T01:34:58.380Z,95.87
2018-06-29T01:45:02.756Z,95.47
2018-06-29T01:55:00.206Z,96.02
2018-06-29T02:04:58.538Z,96.42
2018-06-29T02:14:57.819Z,96.62
2018-06-29T02:24:57.430Z,96.82
2018-06-29T02:34:56.365Z,95.07
2018-06-29T02:44:54.399Z,94.97
2018-06-29T02:54:54.003Z,95.17
2018-06-29T03:04:52.575Z,96.82
2018-06-29T03:14:50.900Z,94.27
2018-06-29T03:24:49.415Z,94.27
2018-06-29T03:34:46.495Z,93.23
2018-06-29T03:44:45.949Z,92.58
2018-06-29T03:54:44.767Z,91.58
2018-06-29T04:04:43.545Z,94.18
2018-06-29T04:14:41.877Z,93.28
2018-06-29T04:24:38.871Z,97.08
2018-06-29T04:34:37.417Z,93.73
2018-06-29T04:44:33.667Z,93.93
2018-06-29T04:54:31.687Z,96.13
2018-06-29T05:04:30.021Z,97.08
2018-06-29T05:14:28.967Z,95.38
2018-06-29T05:24:27.911Z,94.78
2018-06-29T05:34:27.513Z,93.63
2018-06-29T05:44:26.674Z,93.19
2018-06-29T05:54:25.013Z,91.89
2018-06-29T06:04:24.139Z,91.35
2018-06-29T06:14:21.615Z,91.75
2018-06-29T06:24:20.172Z,91.75
2018-06-29T06:34:17.775Z,93.44
2018-06-29T06:44:12.666Z,91.61
2018-06-29T06:54:12.839Z,89.89
2018-06-29T07:04:10.086Z,87.55
2018-06-29T07:14:09.070Z,86.82
2018-06-29T07:24:09.277Z,86.63
2018-06-29T07:34:05.911Z,86.69
2018-06-29T07:44:05.083Z,85.47
2018-06-29T07:54:03.484Z,83.86
2018-06-29T08:04:02.939Z,80.14
2018-06-29T08:14:00.883Z,82.02
2018-06-29T08:23:59.320Z,82.70
2018-06-29T08:33:55.925Z,81.73
2018-06-29T08:43:53.835Z,81.29
2018-06-29T08:53:54.180Z,79.03
2018-06-29T09:03:48.204Z,80.49
2018-06-29T09:13:46.105Z,80.30
2018-06-29T09:23:44.690Z,81.74
2018-06-29T09:33:43.371Z,81.37
2018-06-29T09:43:40.572Z,81.31
2018-06-29T09:53:38.184Z,80.55
2018-06-29T10:03:36.212Z,81.19
2018-06-29T10:13:32.528Z,81.81
2018-06-29T10:23:31.886Z,80.62
2018-06-29T10:33:29.832Z,80.71
2018-06-29T10:43:26.615Z,79.49
2018-06-29T10:53:24.761Z,79.91
2018-06-29T11:03:19.945Z,78.78
2018-06-29T11:13:18.380Z,77.16
2018-06-29T11:23:18.088Z,78.81
2018-06-29T11:33:13.387Z,80.50
2018-06-29T11:43:07.076Z,79.25
2018-06-29T11:53:04.840Z,80.62
2018-06-29T12:03:01.063Z,79.92
2018-06-29T12:12:59.938Z,79.15
2018-06-29T12:22:56.272Z,79.24
2018-06-29T12:32:56.166Z,75.53
2018-06-29T12:42:52.882Z,73.33
2018-06-29T12:52:41.938Z,75.46
2018-06-29T13:02:28.442Z,71.48
2018-06-29T13:12:25.777Z,70.20
2018-06-29T13:22:17.856Z,68.66
2018-06-29T13:32:17.424Z,70.86
2018-06-29T13:42:15.151Z,72.27
2018-06-29T13:52:08.687Z,71.19
2018-06-29T14:02:08.781Z,67.77
2018-06-29T14:12:04.530Z,68.85
2018-06-29T14:21:58.147Z,68.52
2018-06-29T14:31:58.918Z,67.74
2018-06-29T14:41:52.995Z,68.63
2018-06-29T14:51:44.355Z,72.84
2018-06-29T15:01:34.713Z,74.26
2018-06-29T15:11:17.624Z,73.93
2018-06-29T15:21:14.934Z,76.67
2018-06-29T15:31:10.217Z,75.65
2018-06-29T15:41:07.737Z,76.34
2018-06-29T15:51:04.059Z,76.68
2018-06-29T16:00:59.891Z,78.12
2018-06-29T16:10:58.954Z,75.42
2018-06-29T16:20:54.243Z,76.28
2018-06-29T16:30:51.036Z,76.52
2018-06-29T16:40:45.640Z,81.21
2018-06-29T16:50:39.057Z,77.64
2018-06-29T17:00:36.319Z,77.80
2018-06-29T17:10:33.209Z,76.91
2018-06-29T17:20:27.130Z,79.03
2018-06-29T17:30:20.642Z,81.45
2018-06-29T17:40:17.454Z,80.79
2018-06-29T17:50:17.253Z,79.50
2018-06-29T18:00:13.723Z,81.03
2018-06-29T18:09:57.108Z,79.90
2018-06-29T18:19:56.472Z,81.37
2018-06-29T18:29:53.887Z,80.47
2018-06-29T18:39:50.883Z,79.78
2018-06-29T18:49:48.255Z,80.51
2018-06-29T18:59:41.515Z,82.50
2018-06-29T19:09:37.764Z,81.21
2018-06-29T19:19:35.627Z,82.93
2018-06-29T19:29:32.162Z,81.74
2018-06-29T19:39:31.200Z,81.64
2018-06-29T19:49:22.269Z,82.54
2018-06-29T19:59:20.455Z,82.48
2018-06-29T20:09:20.033Z,83.97
2018-06-29T20:19:14.692Z,84.90
2018-06-29T20:29:11.845Z,84.01
2018-06-29T20:39:09.867Z,84.25
2018-06-29T20:49:04.981Z,85.04
2018-06-29T20:59:03.005Z,84.84
2018-06-29T21:09:01.741Z,84.84
2018-06-29T21:18:58.891Z,86.28
2018-06-29T21:28:56.891Z,86.47
2018-06-29T21:38:55.495Z,85.78
2018-06-29T21:48:54.395Z,85.04
2018-06-29T21:58:46.439Z,85.04
2018-06-29T22:08:42.336Z,88.71
2018-06-29T22:18:39.773Z,91.49
2018-06-29T22:28:38.582Z,91.54
2018-06-29T22:38:37.191Z,89.89
2018-06-29T22:48:33.699Z,92.97
2018-06-29T22:58:31.616Z,96.11
2018-06-29T23:08:29.483Z,95.21
2018-06-29T23:18:27.458Z,96.01
2018-06-29T23:28:26.214Z,96.95
2018-06-29T23:38:23.032Z,96.35
2018-06-29T23:48:21.816Z,98.80
2018-06-29T23:58:19.994Z,99.99
